createdAt,value
2019-05-10T00:00:38.392Z,12.25
2019-05-10T00:03:24.837Z,8.90
2019-05-10T00:06:11.883Z,11.22
2019-05-10T00:08:45.415Z,9.30
2019-05-10T00:11:18.263Z,12.03
2019-05-10T00:13:51.069Z,13.43
2019-05-10T00:16:19.735Z,13.22
2019-05-10T00:18:48.441Z,16.97
2019-05-10T00:21:17.089Z,10.13
2019-05-10T00:23:45.775Z,10.63
2019-05-10T00:26:14.436Z,15.23
2019-05-10T00:28:43.211Z,19.10
2019-05-10T00:31:11.892Z,16.85
2019-05-10T00:33:40.684Z,19.80
2019-05-10T00:36:09.285Z,12.60
2019-05-10T00:38:37.887Z,12.73
2019-05-10T00:41:06.536Z,11.88
2019-05-10T00:43:35.106Z,13.50
2019-05-10T00:46:04.252Z,12.33
2019-05-10T00:48:32.805Z,11.00
2019-05-10T00:51:01.529Z,11.88
2019-05-10T00:53:30.186Z,21.12
2019-05-10T00:55:58.915Z,10.48
2019-05-10T00:58:27.665Z,13.95
2019-05-10T01:00:56.468Z,13.85
2019-05-10T01:03:25.162Z,11.45
2019-05-10T01:05:53.767Z,12.70
2019-05-10T01:08:22.412Z,16.45
2019-05-10T01:10:51.119Z,10.25
2019-05-10T01:13:19.703Z,14.03
2019-05-10T01:15:48.416Z,10.43
2019-05-10T01:18:17.116Z,14.20
2019-05-10T01:20:45.764Z,12.05
2019-05-10T01:23:14.503Z,10.38
2019-05-10T01:25:43.226Z,7.20
2019-05-10T01:28:11.815Z,10.80
2019-05-10T01:30:40.911Z,11.25
2019-05-10T01:33:09.576Z,6.97
2019-05-10T01:35:38.283Z,9.55
2019-05-10T01:38:06.896Z,11.38
2019-05-10T01:40:35.529Z,6.65
2019-05-10T01:43:04.098Z,6.70
2019-05-10T01:45:32.754Z,18.17
2019-05-10T01:48:01.623Z,7.65
2019-05-10T01:50:30.288Z,16.93
2019-05-10T01:52:58.887Z,8.95
2019-05-10T01:55:27.671Z,7.40
2019-05-10T01:57:56.275Z,15.88
2019-05-10T02:00:25.134Z,7.05
2019-05-10T02:02:53.774Z,5.87
2019-05-10T02:05:22.401Z,7.08
2019-05-10T02:07:50.985Z,14.47
2019-05-10T02:10:19.832Z,12.18
2019-05-10T02:12:48.556Z,9.13
2019-05-10T02:15:17.394Z,9.90
2019-05-10T02:17:46.061Z,12.33
2019-05-10T02:20:15.312Z,10.50
2019-05-10T02:22:44.062Z,12.80
2019-05-10T02:25:13.214Z,9.40
2019-05-10T02:27:41.839Z,11.50
2019-05-10T02:30:10.681Z,12.07
2019-05-10T02:32:39.355Z,7.83
2019-05-10T02:35:08.704Z,11.80
2019-05-10T02:37:37.366Z,9.60
2019-05-10T02:40:06.549Z,12.70
2019-05-10T02:42:35.467Z,13.65
2019-05-10T02:45:08.539Z,7.10
2019-05-10T02:47:37.199Z,16.12
2019-05-10T02:50:07.930Z,13.55
2019-05-10T02:52:36.506Z,15.30
2019-05-10T02:55:06.931Z,13.78
2019-05-10T02:57:37.185Z,12.35
2019-05-10T03:00:07.649Z,13.58
2019-05-10T03:02:36.907Z,13.35
2019-05-10T03:05:09.237Z,12.82
2019-05-10T03:07:38.566Z,12.85
2019-05-10T03:10:11.757Z,11.00
2019-05-10T03:12:41.799Z,11.30
2019-05-10T03:15:12.165Z,14.25
2019-05-10T03:17:41.479Z,11.68
2019-05-10T03:20:10.717Z,9.88
2019-05-10T03:22:41.556Z,9.95
2019-05-10T03:25:10.641Z,10.30
2019-05-10T03:27:39.634Z,11.22
2019-05-10T03:30:08.681Z,10.35
2019-05-10T03:32:37.374Z,12.28
2019-05-10T03:35:07.136Z,10.78
2019-05-10T03:37:36.232Z,9.25
2019-05-10T03:40:09.437Z,13.62
2019-05-10T03:42:38.194Z,15.83
2019-05-10T03:45:07.959Z,12.40
2019-05-10T03:47:36.678Z,11.35
2019-05-10T03:50:08.505Z,14.30
2019-05-10T03:52:37.229Z,20.50
2019-05-10T03:55:06.754Z,20.00
2019-05-10T03:57:35.489Z,28.92
2019-05-10T04:00:11.829Z,12.73
2019-05-10T04:02:40.558Z,11.85
2019-05-10T04:05:09.941Z,17.52
2019-05-10T04:07:38.546Z,13.25
2019-05-10T04:10:07.490Z,19.10
2019-05-10T04:12:36.263Z,13.75
2019-05-10T04:15:07.578Z,17.80
2019-05-10T04:17:36.275Z,13.90
2019-05-10T04:20:07.383Z,9.53
2019-05-10T04:22:36.068Z,12.68
2019-05-10T04:25:05.865Z,17.67
2019-05-10T04:27:34.456Z,17.57
2019-05-10T04:30:03.780Z,17.62
2019-05-10T04:32:32.483Z,13.50
2019-05-10T04:35:01.069Z,10.03
2019-05-10T04:37:29.666Z,14.55
2019-05-10T04:39:58.264Z,20.65
2019-05-10T04:42:26.937Z,20.72
2019-05-10T04:44:55.554Z,11.10
2019-05-10T04:47:24.295Z,14.23
2019-05-10T04:49:52.922Z,20.10
2019-05-10T04:52:21.559Z,15.75
2019-05-10T04:54:50.240Z,12.90
2019-05-10T04:57:18.905Z,10.40
2019-05-10T04:59:47.496Z,16.85
2019-05-10T05:02:16.034Z,12.88
2019-05-10T05:04:44.842Z,10.63
2019-05-10T05:07:13.442Z,21.42
2019-05-10T05:09:41.997Z,16.23
2019-05-10T05:12:10.713Z,17.98
2019-05-10T05:14:39.442Z,15.10
2019-05-10T05:17:08.047Z,35.20
2019-05-10T05:19:40.365Z,14.25
2019-05-10T05:22:07.182Z,17.48
2019-05-10T05:24:35.779Z,17.52
2019-05-10T05:27:04.486Z,23.35
2019-05-10T05:29:33.097Z,20.55
2019-05-10T05:32:03.661Z,12.47
2019-05-10T05:34:32.058Z,15.43
2019-05-10T05:37:00.853Z,30.52
2019-05-10T05:39:29.522Z,13.72
2019-05-10T05:41:58.223Z,16.48
2019-05-10T05:44:27.886Z,11.80
2019-05-10T05:46:56.900Z,18.77
2019-05-10T05:49:25.537Z,21.82
2019-05-10T05:51:54.199Z,13.20
2019-05-10T05:54:22.956Z,19.05
2019-05-10T05:56:53.118Z,10.05
2019-05-10T05:59:23.644Z,15.45
2019-05-10T06:01:52.316Z,13.25
2019-05-10T06:04:20.886Z,15.00
2019-05-10T06:06:53.883Z,17.87
2019-05-10T06:09:19.774Z,14.73
2019-05-10T06:11:48.575Z,20.17
2019-05-10T06:14:17.298Z,15.45
2019-05-10T06:16:51.481Z,18.60
2019-05-10T06:19:19.952Z,14.70
2019-05-10T06:21:46.683Z,19.75
2019-05-10T06:24:15.893Z,16.80
2019-05-10T06:26:44.757Z,15.30
2019-05-10T06:29:17.577Z,19.02
2019-05-10T06:31:43.741Z,16.40
2019-05-10T06:34:12.404Z,12.88
2019-05-10T06:36:41.095Z,14.18
2019-05-10T06:39:09.958Z,10.68
2019-05-10T06:41:38.558Z,16.40
2019-05-10T06:44:07.286Z,18.32
2019-05-10T06:46:36.032Z,10.10
2019-05-10T06:49:08.361Z,8.58
2019-05-10T06:51:35.003Z,16.65
2019-05-10T06:54:03.714Z,13.18
2019-05-10T06:56:32.515Z,10.72
2019-05-10T06:59:13.151Z,10.53
2019-05-10T07:01:31.425Z,18.48
2019-05-10T07:03:59.997Z,16.45
2019-05-10T07:06:28.755Z,8.65
2019-05-10T07:08:59.226Z,18.57
2019-05-10T07:11:27.931Z,15.05
2019-05-10T07:13:56.531Z,11.93
2019-05-10T07:16:26.170Z,19.45
2019-05-10T07:19:00.359Z,16.05
2019-05-10T07:21:25.296Z,19.87
2019-05-10T07:23:53.962Z,10.75
2019-05-10T07:26:23.968Z,22.00
2019-05-10T07:28:57.409Z,13.35
2019-05-10T07:31:23.903Z,15.10
2019-05-10T07:33:52.618Z,11.50
2019-05-10T07:36:27.051Z,6.45
2019-05-10T07:38:51.669Z,15.95
2019-05-10T07:41:26.565Z,9.83
2019-05-10T07:43:50.644Z,15.13
2019-05-10T07:46:19.266Z,9.98
2019-05-10T07:48:53.425Z,12.68
2019-05-10T07:51:22.945Z,16.67
2019-05-10T07:53:48.804Z,11.28
2019-05-10T07:56:17.446Z,11.28
2019-05-10T07:58:46.076Z,8.13
2019-05-10T08:01:14.732Z,9.55
2019-05-10T08:03:48.193Z,15.88
2019-05-10T08:06:15.521Z,9.80
2019-05-10T08:08:44.002Z,11.38
2019-05-10T08:11:12.615Z,16.12
2019-05-10T08:13:41.170Z,12.50
2019-05-10T08:16:18.960Z,23.45
2019-05-10T08:18:42.436Z,10.63
2019-05-10T08:21:21.970Z,20.10
2019-05-10T08:23:41.501Z,17.05
2019-05-10T08:26:17.538Z,12.30
2019-05-10T08:28:44.437Z,11.10
2019-05-10T08:31:12.439Z,10.18
2019-05-10T08:33:44.312Z,15.83
2019-05-10T08:36:12.118Z,9.53
2019-05-10T08:38:46.715Z,22.75
2019-05-10T08:41:14.337Z,15.43
2019-05-10T08:43:43.089Z,14.45
2019-05-10T08:46:12.204Z,27.05
2019-05-10T08:48:46.666Z,18.00
2019-05-10T08:51:12.491Z,14.05
2019-05-10T08:53:42.288Z,16.07
2019-05-10T08:56:16.074Z,10.68
2019-05-10T08:58:42.238Z,8.08
2019-05-10T09:01:23.886Z,10.63
2019-05-10T09:03:42.050Z,12.23
2019-05-10T09:06:16.272Z,10.48
2019-05-10T09:08:43.165Z,13.53
2019-05-10T09:11:11.635Z,10.00
2019-05-10T09:13:45.093Z,9.85
2019-05-10T09:16:13.493Z,10.50
2019-05-10T09:18:46.612Z,14.95
2019-05-10T09:21:14.306Z,7.60
2019-05-10T09:23:42.752Z,8.00
2019-05-10T09:26:16.271Z,12.33
2019-05-10T09:28:42.221Z,8.93
2019-05-10T09:31:18.729Z,10.53
2019-05-10T09:33:49.137Z,7.90
2019-05-10T09:36:12.452Z,12.20
2019-05-10T09:38:43.379Z,9.83
2019-05-10T09:41:11.943Z,9.05
2019-05-10T09:43:48.393Z,13.20
2019-05-10T09:46:11.881Z,11.60
2019-05-10T09:48:44.655Z,5.53
2019-05-10T09:51:13.803Z,8.28
2019-05-10T09:53:41.866Z,8.73
2019-05-10T09:56:10.498Z,11.85
2019-05-10T09:58:39.189Z,5.85
2019-05-10T10:01:16.985Z,4.90
2019-05-10T10:03:43.157Z,11.20
2019-05-10T10:06:11.302Z,13.28
2019-05-10T10:08:43.561Z,11.57
2019-05-10T10:11:14.965Z,5.40
2019-05-10T10:13:43.549Z,7.35
2019-05-10T10:16:14.579Z,6.72
2019-05-10T10:18:40.486Z,11.33
2019-05-10T10:21:10.472Z,5.87
2019-05-10T10:23:39.436Z,7.10
2019-05-10T10:26:12.727Z,10.80
2019-05-10T10:28:39.677Z,10.60
2019-05-10T10:31:08.743Z,9.80
2019-05-10T10:33:37.897Z,7.08
2019-05-10T10:36:10.265Z,6.62
2019-05-10T10:38:45.827Z,9.38
2019-05-10T10:41:08.243Z,14.55
2019-05-10T10:43:37.236Z,8.40
2019-05-10T10:46:12.156Z,14.18
2019-05-10T10:48:37.053Z,4.78
2019-05-10T10:51:08.075Z,11.88
2019-05-10T10:53:36.383Z,8.05
2019-05-10T10:56:07.503Z,13.03
2019-05-10T10:58:35.354Z,6.90
2019-05-10T11:01:10.873Z,7.97
2019-05-10T11:03:34.430Z,5.78
2019-05-10T11:06:03.119Z,7.25
2019-05-10T11:08:33.189Z,8.83
2019-05-10T11:11:02.339Z,6.20
2019-05-10T11:13:45.086Z,4.47
2019-05-10T11:16:09.875Z,5.00
2019-05-10T11:18:32.118Z,7.62
2019-05-10T11:21:02.007Z,9.90
2019-05-10T11:23:36.674Z,7.00
2019-05-10T11:26:01.418Z,12.93
2019-05-10T11:28:38.642Z,10.48
2019-05-10T11:31:01.052Z,9.70
2019-05-10T11:33:33.317Z,8.08
2019-05-10T11:36:06.447Z,12.98
2019-05-10T11:38:31.741Z,6.00
2019-05-10T11:41:01.937Z,9.25
2019-05-10T11:43:31.396Z,7.35
2019-05-10T11:46:00.533Z,9.63
2019-05-10T11:48:36.945Z,8.55
2019-05-10T11:50:59.418Z,4.42
2019-05-10T11:53:28.031Z,9.80
2019-05-10T11:55:56.708Z,9.50
2019-05-10T11:58:25.304Z,7.47
2019-05-10T12:00:59.225Z,8.63
2019-05-10T12:03:24.283Z,7.45
2019-05-10T12:06:04.586Z,10.15
2019-05-10T12:08:23.219Z,9.98
2019-05-10T12:10:56.659Z,10.25
2019-05-10T12:13:25.026Z,9.58
2019-05-10T12:15:52.757Z,9.40
2019-05-10T12:18:26.559Z,14.80
2019-05-10T12:21:00.328Z,6.05
2019-05-10T12:23:24.860Z,9.28
2019-05-10T12:26:58.400Z,7.72
2019-05-10T12:28:28.450Z,7.60
2019-05-10T12:30:52.591Z,9.10
2019-05-10T12:33:25.057Z,10.38
2019-05-10T12:35:51.518Z,10.05
2019-05-10T12:38:23.736Z,18.60
2019-05-10T12:40:51.376Z,11.60
2019-05-10T12:43:21.085Z,10.45
2019-05-10T12:45:51.721Z,11.88
2019-05-10T12:48:23.224Z,11.15
2019-05-10T12:50:54.409Z,13.50
2019-05-10T12:53:21.576Z,7.70
2019-05-10T12:55:50.348Z,10.70
2019-05-10T12:58:18.939Z,16.30
2019-05-10T13:00:52.706Z,9.65
2019-05-10T13:03:19.427Z,15.50
2019-05-10T13:05:52.554Z,7.50
2019-05-10T13:08:18.747Z,10.25
2019-05-10T13:10:49.780Z,5.45
2019-05-10T13:13:23.003Z,13.43
2019-05-10T13:15:47.980Z,8.23
2019-05-10T13:18:16.644Z,10.50
2019-05-10T13:20:45.251Z,7.72
2019-05-10T13:23:15.925Z,6.60
2019-05-10T13:25:44.306Z,6.45
2019-05-10T13:28:12.847Z,11.20
2019-05-10T13:30:41.719Z,11.33
2019-05-10T13:33:10.501Z,10.58
2019-05-10T13:35:39.146Z,7.03
2019-05-10T13:38:07.901Z,8.93
2019-05-10T13:40:39.016Z,13.30
2019-05-10T13:43:06.834Z,8.88
2019-05-10T13:45:37.675Z,11.63
2019-05-10T13:48:05.895Z,10.00
2019-05-10T13:50:34.487Z,5.92
2019-05-10T13:53:03.151Z,10.40
2019-05-10T13:55:31.949Z,7.05
2019-05-10T13:58:00.644Z,6.85
2019-05-10T14:00:34.412Z,8.25
2019-05-10T14:03:04.982Z,9.33
2019-05-10T14:05:30.401Z,7.58
2019-05-10T14:07:59.070Z,12.00
2019-05-10T14:10:27.704Z,13.05
2019-05-10T14:13:01.950Z,12.37
2019-05-10T14:15:26.753Z,10.30
2019-05-10T14:17:55.430Z,6.80
2019-05-10T14:20:27.513Z,9.18
2019-05-10T14:22:58.372Z,13.00
2019-05-10T14:25:29.324Z,7.97
2019-05-10T14:27:55.015Z,9.05
2019-05-10T14:30:23.801Z,9.88
2019-05-10T14:32:52.403Z,7.95
2019-05-10T14:35:22.408Z,28.07
2019-05-10T14:37:51.465Z,11.22
2019-05-10T14:40:27.821Z,16.07
2019-05-10T14:42:50.292Z,9.30
2019-05-10T14:45:19.491Z,13.78
2019-05-10T14:47:50.560Z,7.97
2019-05-10T14:50:26.390Z,14.75
2019-05-10T14:52:49.234Z,13.05
2019-05-10T14:55:17.920Z,14.53
2019-05-10T14:57:46.546Z,8.23
2019-05-10T15:00:15.633Z,11.95
2019-05-10T15:02:44.334Z,9.05
2019-05-10T15:05:15.836Z,10.43
2019-05-10T15:07:43.466Z,10.40
2019-05-10T15:10:12.302Z,10.30
2019-05-10T15:12:40.890Z,7.78
2019-05-10T15:15:10.462Z,7.87
2019-05-10T15:17:39.060Z,14.65
2019-05-10T15:20:08.462Z,8.05
2019-05-10T15:22:37.227Z,8.53
2019-05-10T15:25:07.395Z,12.82
2019-05-10T15:27:36.043Z,8.80
2019-05-10T15:30:08.173Z,10.05
2019-05-10T15:32:37.005Z,9.85
2019-05-10T15:35:08.501Z,11.88
2019-05-10T15:37:40.909Z,9.45
2019-05-10T15:40:08.471Z,10.80
2019-05-10T15:42:38.455Z,11.60
2019-05-10T15:45:12.095Z,11.60
2019-05-10T15:47:50.617Z,10.75
2019-05-10T15:50:10.032Z,10.90
2019-05-10T15:52:39.673Z,12.00
2019-05-10T15:55:09.229Z,9.15
2019-05-10T15:57:37.925Z,11.03
2019-05-10T16:00:07.568Z,10.90
2019-05-10T16:02:36.270Z,13.78
2019-05-10T16:05:23.283Z,11.03
2019-05-10T16:07:38.413Z,10.50
2019-05-10T16:10:08.338Z,17.57
2019-05-10T16:12:37.771Z,14.68
2019-05-10T16:15:14.026Z,12.90
2019-05-10T16:17:38.544Z,8.75
2019-05-10T16:20:07.456Z,12.40
2019-05-10T16:22:36.130Z,9.90
2019-05-10T16:25:06.433Z,8.65
2019-05-10T16:27:40.437Z,11.63
2019-05-10T16:30:12.161Z,8.03
2019-05-10T16:32:39.227Z,11.12
2019-05-10T16:35:12.753Z,10.08
2019-05-10T16:37:38.425Z,10.00
2019-05-10T16:40:10.168Z,13.62
2019-05-10T16:42:39.022Z,8.10
2019-05-10T16:45:08.001Z,9.70
2019-05-10T16:47:36.728Z,11.63
2019-05-10T16:50:07.511Z,7.37
2019-05-10T16:52:36.201Z,8.83
2019-05-10T16:55:09.456Z,8.95
2019-05-10T16:57:37.247Z,15.68
2019-05-10T17:00:10.749Z,8.35
2019-05-10T17:02:42.240Z,14.58
2019-05-10T17:05:15.159Z,8.43
2019-05-10T17:07:40.350Z,9.73
2019-05-10T17:10:09.574Z,12.15
2019-05-10T17:12:38.354Z,23.85
2019-05-10T17:15:08.172Z,16.85
2019-05-10T17:17:39.000Z,8.43
2019-05-10T17:20:14.078Z,16.70
2019-05-10T17:22:38.545Z,14.25
2019-05-10T17:25:08.450Z,12.70
2019-05-10T17:27:37.256Z,16.23
2019-05-10T17:30:07.550Z,12.60
2019-05-10T17:32:36.133Z,7.22
2019-05-10T17:35:07.480Z,9.63
2019-05-10T17:37:37.491Z,10.88
2019-05-10T17:40:10.579Z,6.85
2019-05-10T17:42:41.268Z,16.25
2019-05-10T17:45:09.688Z,12.28
2019-05-10T17:47:38.487Z,13.95
2019-05-10T17:50:09.030Z,11.93
2019-05-10T17:52:37.706Z,11.48
2019-05-10T17:55:10.974Z,12.53
2019-05-10T17:57:37.670Z,19.37
2019-05-10T18:00:07.810Z,10.63
2019-05-10T18:02:36.399Z,16.32
2019-05-10T18:05:08.152Z,10.15
2019-05-10T18:07:36.441Z,11.65
2019-05-10T18:10:05.711Z,22.05
2019-05-10T18:12:34.317Z,15.58
2019-05-10T18:15:04.977Z,14.63
2019-05-10T18:17:33.853Z,20.85
2019-05-10T18:20:03.826Z,16.27
2019-05-10T18:22:41.853Z,19.17
2019-05-10T18:25:02.971Z,20.12
2019-05-10T18:27:31.638Z,15.72
2019-05-10T18:30:00.317Z,17.45
2019-05-10T18:32:34.970Z,13.85
2019-05-10T18:34:59.087Z,15.38
2019-05-10T18:37:27.799Z,19.23
2019-05-10T18:39:56.410Z,22.60
2019-05-10T18:42:25.846Z,22.22
2019-05-10T18:44:55.499Z,20.75
2019-05-10T18:47:24.175Z,25.25
2019-05-10T18:49:52.777Z,35.78
2019-05-10T18:52:21.396Z,24.67
2019-05-10T18:54:50.022Z,23.05
2019-05-10T18:57:19.503Z,22.25
2019-05-10T18:59:48.310Z,20.80
2019-05-10T19:02:19.657Z,38.95
2019-05-10T19:04:52.100Z,28.75
2019-05-10T19:07:17.704Z,22.05
2019-05-10T19:09:46.362Z,27.85
2019-05-10T19:12:18.934Z,16.05
2019-05-10T19:14:45.301Z,19.02
2019-05-10T19:17:14.043Z,19.17
2019-05-10T19:19:42.717Z,17.35
2019-05-10T19:22:11.306Z,17.02
2019-05-10T19:24:39.926Z,23.50
2019-05-10T19:27:09.375Z,20.00
2019-05-10T19:29:45.935Z,17.35
2019-05-10T19:32:11.664Z,21.37
2019-05-10T19:34:38.929Z,20.05
2019-05-10T19:37:07.643Z,18.55
2019-05-10T19:39:36.209Z,20.30
2019-05-10T19:42:06.238Z,19.67
2019-05-10T19:44:40.237Z,23.42
2019-05-10T19:47:05.290Z,23.35
2019-05-10T19:49:34.041Z,21.20
2019-05-10T19:52:02.790Z,29.05
2019-05-10T19:54:31.540Z,25.57
2019-05-10T19:57:00.277Z,28.83
2019-05-10T19:59:28.925Z,38.28
2019-05-10T20:01:57.657Z,34.25
2019-05-10T20:04:26.468Z,39.27
2019-05-10T20:06:55.123Z,31.75
2019-05-10T20:09:23.726Z,28.65
2019-05-10T20:11:52.374Z,27.85
2019-05-10T20:14:20.986Z,24.35
2019-05-10T20:16:53.234Z,32.67
2019-05-10T20:19:19.818Z,23.83
2019-05-10T20:21:48.418Z,31.27
2019-05-10T20:24:17.025Z,28.65
2019-05-10T20:26:45.746Z,29.30
2019-05-10T20:29:14.458Z,21.27
2019-05-10T20:31:43.199Z,20.95
2019-05-10T20:34:11.841Z,26.85
2019-05-10T20:36:40.598Z,20.82
2019-05-10T20:39:09.280Z,18.67
2019-05-10T20:41:37.924Z,28.15
2019-05-10T20:44:06.758Z,30.02
2019-05-10T20:46:35.349Z,25.48
2019-05-10T20:49:03.989Z,26.60
2019-05-10T20:51:32.710Z,30.17
2019-05-10T20:54:01.352Z,20.95
2019-05-10T20:56:29.994Z,30.72
2019-05-10T20:58:58.598Z,33.10
2019-05-10T21:01:27.262Z,35.75
2019-05-10T21:03:55.986Z,30.30
2019-05-10T21:06:24.585Z,28.45
2019-05-10T21:08:53.182Z,41.13
2019-05-10T21:11:21.916Z,35.52
2019-05-10T21:13:50.664Z,33.63
2019-05-10T21:16:19.314Z,72.47
2019-05-10T21:18:47.895Z,37.35
2019-05-10T21:21:16.509Z,32.88
2019-05-10T21:23:45.132Z,28.32
2019-05-10T21:26:13.731Z,29.35
2019-05-10T21:28:42.435Z,30.40
2019-05-10T21:31:11.067Z,31.45
2019-05-10T21:33:39.649Z,29.32
2019-05-10T21:36:08.271Z,27.00
2019-05-10T21:38:36.876Z,24.67
2019-05-10T21:41:05.547Z,22.67
2019-05-10T21:43:34.256Z,29.75
2019-05-10T21:46:02.988Z,23.73
2019-05-10T21:48:31.603Z,25.27
2019-05-10T21:51:00.186Z,22.05
2019-05-10T21:53:28.855Z,20.40
2019-05-10T21:55:57.510Z,21.80
2019-05-10T21:58:26.185Z,25.30
2019-05-10T22:00:55.137Z,20.92
2019-05-10T22:03:23.894Z,18.00
2019-05-10T22:05:52.582Z,21.23
2019-05-10T22:08:21.291Z,22.22
2019-05-10T22:10:49.999Z,28.23
2019-05-10T22:13:18.695Z,27.82
2019-05-10T22:15:47.379Z,27.07
2019-05-10T22:18:16.812Z,25.10
2019-05-10T22:20:45.430Z,24.55
2019-05-10T22:23:14.201Z,28.57
2019-05-10T22:25:42.907Z,27.67
2019-05-10T22:28:11.622Z,19.67
2019-05-10T22:30:40.291Z,21.80
2019-05-10T22:33:08.870Z,20.97
2019-05-10T22:35:37.453Z,22.73
2019-05-10T22:38:06.123Z,25.55
2019-05-10T22:40:34.697Z,22.55
2019-05-10T22:43:03.666Z,28.62
2019-05-10T22:45:32.301Z,17.60
2019-05-10T22:48:00.903Z,16.93
2019-05-10T22:50:29.679Z,28.73
2019-05-10T22:52:58.439Z,25.15
2019-05-10T22:55:27.058Z,18.40
2019-05-10T22:57:55.623Z,24.10
2019-05-10T23:00:24.527Z,18.90
2019-05-10T23:02:53.136Z,18.35
2019-05-10T23:05:21.777Z,19.98
2019-05-10T23:07:50.399Z,20.32
2019-05-10T23:10:19.079Z,23.75
2019-05-10T23:12:47.771Z,21.30
2019-05-10T23:15:16.611Z,16.73
2019-05-10T23:17:45.329Z,16.55
2019-05-10T23:20:14.403Z,18.85
2019-05-10T23:22:43.183Z,19.25
2019-05-10T23:25:12.028Z,14.18
2019-05-10T23:27:40.714Z,13.53
2019-05-10T23:30:09.750Z,18.77
2019-05-10T23:32:38.382Z,26.40
2019-05-10T23:35:07.520Z,19.37
2019-05-10T23:37:36.122Z,22.87
2019-05-10T23:40:06.144Z,18.95
2019-05-10T23:42:34.815Z,16.15
2019-05-10T23:45:04.158Z,17.60
2019-05-10T23:47:32.841Z,18.62
2019-05-10T23:50:01.402Z,16.20
2019-05-10T23:52:30.109Z,18.40
2019-05-10T23:54:58.757Z,21.97
2019-05-10T23:57:27.372Z,17.12
2019-05-10T23:59:56.085Z,15.80
